sensor_id;sensor_type;location;lat;lon;timestamp;P1;durP1;ratioP1;P2;durP2;ratioP2
35110;SDS011;21290;50.158;8.658;2023-10-19T00:00:40;25.95;;;16.38;;
35110;SDS011;21290;50.158;8.658;2023-10-19T00:03:11;24.40;;;16.10;;
35110;SDS011;21290;50.158;8.658;2023-10-19T00:05:38;20.20;;;15.95;;
35110;SDS011;21290;50.158;8.658;2023-10-19T00:08:05;19.83;;;14.50;;
35110;SDS011;21290;50.158;8.658;2023-10-19T00:10:46;23.60;;;15.25;;
35110;SDS011;21290;50.158;8.658;2023-10-19T00:13:20;18.23;;;14.18;;
35110;SDS011;21290;50.158;8.658;2023-10-19T00:15:48;18.75;;;15.40;;
35110;SDS011;21290;50.158;8.658;2023-10-19T00:18:18;20.83;;;15.18;;
35110;SDS011;21290;50.158;8.658;2023-10-19T00:20:45;20.85;;;15.80;;
35110;SDS011;21290;50.158;8.658;2023-10-19T00:23:21;21.83;;;16.30;;
35110;SDS011;21290;50.158;8.658;2023-10-19T00:25:58;22.52;;;16.20;;
35110;SDS011;21290;50.158;8.658;2023-10-19T00:28:26;19.40;;;14.73;;
35110;SDS011;21290;50.158;8.658;2023-10-19T00:30:53;23.42;;;14.90;;
35110;SDS011;21290;50.158;8.658;2023-10-19T00:33:26;19.77;;;13.98;;
35110;SDS011;21290;50.158;8.658;2023-10-19T00:35:55;25.75;;;16.38;;
35110;SDS011;21290;50.158;8.658;2023-10-19T00:38:34;20.00;;;15.95;;
35110;SDS011;21290;50.158;8.658;2023-10-19T00:41:01;18.52;;;15.00;;
35110;SDS011;21290;50.158;8.658;2023-10-19T00:43:38;23.58;;;15.00;;
35110;SDS011;21290;50.158;8.658;2023-10-19T00:46:10;20.73;;;15.38;;
35110;SDS011;21290;50.158;8.658;2023-10-19T00:48:52;20.40;;;15.93;;
35110;SDS011;21290;50.158;8.658;2023-10-19T00:51:22;19.45;;;14.68;;
35110;SDS011;21290;50.158;8.658;2023-10-19T00:53:54;21.67;;;16.02;;
35110;SDS011;21290;50.158;8.658;2023-10-19T00:58:52;21.73;;;16.13;;
35110;SDS011;21290;50.158;8.658;2023-10-19T01:01:27;22.23;;;14.82;;
35110;SDS011;21290;50.158;8.658;2023-10-19T01:03:55;23.45;;;15.63;;
35110;SDS011;21290;50.158;8.658;2023-10-19T01:06:23;23.55;;;15.73;;
35110;SDS011;21290;50.158;8.658;2023-10-19T01:08:50;19.80;;;15.32;;
35110;SDS011;21290;50.158;8.658;2023-10-19T01:11:17;20.25;;;15.73;;
35110;SDS011;21290;50.158;8.658;2023-10-19T01:13:47;21.73;;;16.35;;
35110;SDS011;21290;50.158;8.658;2023-10-19T01:16:14;19.42;;;14.95;;
35110;SDS011;21290;50.158;8.658;2023-10-19T01:18:48;22.50;;;16.10;;
35110;SDS011;21290;50.158;8.658;2023-10-19T01:21:24;21.35;;;15.05;;
35110;SDS011;21290;50.158;8.658;2023-10-19T01:23:54;24.23;;;16.95;;
35110;SDS011;21290;50.158;8.658;2023-10-19T01:26:20;22.38;;;16.50;;
35110;SDS011;21290;50.158;8.658;2023-10-19T01:28:53;22.00;;;16.48;;
35110;SDS011;21290;50.158;8.658;2023-10-19T01:31:25;19.83;;;15.32;;
35110;SDS011;21290;50.158;8.658;2023-10-19T01:33:55;20.00;;;15.15;;
35110;SDS011;21290;50.158;8.658;2023-10-19T01:36:24;21.25;;;15.40;;
35110;SDS011;21290;50.158;8.658;2023-10-19T01:38:55;22.92;;;16.45;;
35110;SDS011;21290;50.158;8.658;2023-10-19T01:41:27;22.95;;;16.52;;
35110;SDS011;21290;50.158;8.658;2023-10-19T01:43:56;20.70;;;15.98;;
35110;SDS011;21290;50.158;8.658;2023-10-19T01:46:31;21.75;;;16.50;;
35110;SDS011;21290;50.158;8.658;2023-10-19T01:51:29;19.63;;;14.73;;
35110;SDS011;21290;50.158;8.658;2023-10-19T01:53:59;20.67;;;15.82;;
35110;SDS011;21290;50.158;8.658;2023-10-19T01:56:29;24.00;;;15.60;;
35110;SDS011;21290;50.158;8.658;2023-10-19T01:58:55;23.65;;;15.98;;
35110;SDS011;21290;50.158;8.658;2023-10-19T02:01:24;23.30;;;15.98;;
35110;SDS011;21290;50.158;8.658;2023-10-19T02:03:54;20.90;;;15.75;;
35110;SDS011;21290;50.158;8.658;2023-10-19T02:06:27;21.92;;;16.77;;
35110;SDS011;21290;50.158;8.658;2023-10-19T02:11:45;20.92;;;15.98;;
35110;SDS011;21290;50.158;8.658;2023-10-19T02:14:14;20.83;;;16.20;;
35110;SDS011;21290;50.158;8.658;2023-10-19T02:16:42;20.67;;;15.50;;
35110;SDS011;21290;50.158;8.658;2023-10-19T02:19:22;23.20;;;16.20;;
35110;SDS011;21290;50.158;8.658;2023-10-19T02:22:00;22.30;;;16.50;;
35110;SDS011;21290;50.158;8.658;2023-10-19T02:24:34;21.83;;;15.90;;
35110;SDS011;21290;50.158;8.658;2023-10-19T02:27:01;24.35;;;16.48;;
35110;SDS011;21290;50.158;8.658;2023-10-19T02:29:28;22.98;;;16.08;;
35110;SDS011;21290;50.158;8.658;2023-10-19T02:31:54;22.30;;;16.30;;
35110;SDS011;21290;50.158;8.658;2023-10-19T02:34:23;24.15;;;16.75;;
35110;SDS011;21290;50.158;8.658;2023-10-19T02:36:50;20.67;;;15.95;;
35110;SDS011;21290;50.158;8.658;2023-10-19T02:39:17;21.67;;;16.10;;
35110;SDS011;21290;50.158;8.658;2023-10-19T02:41:44;24.50;;;17.27;;
35110;SDS011;21290;50.158;8.658;2023-10-19T02:44:15;24.70;;;17.55;;
35110;SDS011;21290;50.158;8.658;2023-10-19T02:49:14;24.25;;;17.13;;
35110;SDS011;21290;50.158;8.658;2023-10-19T02:51:45;21.77;;;17.00;;
35110;SDS011;21290;50.158;8.658;2023-10-19T02:54:13;25.25;;;17.35;;
35110;SDS011;21290;50.158;8.658;2023-10-19T02:56:48;24.15;;;16.98;;
35110;SDS011;21290;50.158;8.658;2023-10-19T02:59:18;25.70;;;18.30;;
35110;SDS011;21290;50.158;8.658;2023-10-19T03:01:53;27.10;;;18.20;;
35110;SDS011;21290;50.158;8.658;2023-10-19T03:04:28;22.80;;;17.67;;
35110;SDS011;21290;50.158;8.658;2023-10-19T03:06:55;26.77;;;18.15;;
35110;SDS011;21290;50.158;8.658;2023-10-19T03:09:25;26.45;;;18.20;;
35110;SDS011;21290;50.158;8.658;2023-10-19T03:11:52;24.60;;;17.40;;
35110;SDS011;21290;50.158;8.658;2023-10-19T03:14:19;22.92;;;17.58;;
35110;SDS011;21290;50.158;8.658;2023-10-19T03:16:46;26.45;;;18.55;;
35110;SDS011;21290;50.158;8.658;2023-10-19T03:19:13;24.10;;;17.50;;
35110;SDS011;21290;50.158;8.658;2023-10-19T03:21:40;24.30;;;17.08;;
35110;SDS011;21290;50.158;8.658;2023-10-19T03:24:10;21.33;;;17.05;;
35110;SDS011;21290;50.158;8.658;2023-10-19T03:26:50;26.30;;;17.95;;
35110;SDS011;21290;50.158;8.658;2023-10-19T03:29:17;25.98;;;17.85;;
35110;SDS011;21290;50.158;8.658;2023-10-19T03:31:58;25.52;;;16.95;;
35110;SDS011;21290;50.158;8.658;2023-10-19T03:34:27;28.27;;;17.77;;
35110;SDS011;21290;50.158;8.658;2023-10-19T03:36:59;23.73;;;17.77;;
35110;SDS011;21290;50.158;8.658;2023-10-19T03:39:33;22.73;;;17.00;;
35110;SDS011;21290;50.158;8.658;2023-10-19T03:42:00;23.88;;;17.45;;
35110;SDS011;21290;50.158;8.658;2023-10-19T03:44:27;23.65;;;17.50;;
35110;SDS011;21290;50.158;8.658;2023-10-19T03:47:05;26.23;;;17.42;;
35110;SDS011;21290;50.158;8.658;2023-10-19T03:49:38;24.13;;;16.67;;
35110;SDS011;21290;50.158;8.658;2023-10-19T03:52:07;24.90;;;17.98;;
35110;SDS011;21290;50.158;8.658;2023-10-19T03:54:34;22.70;;;17.00;;
35110;SDS011;21290;50.158;8.658;2023-10-19T03:57:10;22.40;;;16.65;;
35110;SDS011;21290;50.158;8.658;2023-10-19T03:59:51;24.60;;;18.00;;
35110;SDS011;21290;50.158;8.658;2023-10-19T04:02:27;26.45;;;18.70;;
35110;SDS011;21290;50.158;8.658;2023-10-19T04:05:02;28.52;;;18.02;;
35110;SDS011;21290;50.158;8.658;2023-10-19T04:07:29;24.02;;;17.88;;
35110;SDS011;21290;50.158;8.658;2023-10-19T04:09:58;28.13;;;18.83;;
35110;SDS011;21290;50.158;8.658;2023-10-19T04:12:51;26.20;;;18.85;;
35110;SDS011;21290;50.158;8.658;2023-10-19T04:15:17;26.65;;;18.67;;
35110;SDS011;21290;50.158;8.658;2023-10-19T04:17:48;25.15;;;19.23;;
35110;SDS011;21290;50.158;8.658;2023-10-19T04:20:16;23.95;;;17.88;;
35110;SDS011;21290;50.158;8.658;2023-10-19T04:22:44;27.02;;;17.90;;
35110;SDS011;21290;50.158;8.658;2023-10-19T04:25:12;28.98;;;19.48;;
35110;SDS011;21290;50.158;8.658;2023-10-19T04:27:39;28.55;;;19.33;;
35110;SDS011;21290;50.158;8.658;2023-10-19T04:30:08;27.17;;;18.00;;
35110;SDS011;21290;50.158;8.658;2023-10-19T04:32:49;28.52;;;20.02;;
35110;SDS011;21290;50.158;8.658;2023-10-19T04:35:17;32.38;;;20.48;;
35110;SDS011;21290;50.158;8.658;2023-10-19T04:37:48;32.42;;;20.63;;
35110;SDS011;21290;50.158;8.658;2023-10-19T04:40:19;28.92;;;19.85;;
35110;SDS011;21290;50.158;8.658;2023-10-19T04:42:47;32.03;;;20.73;;
35110;SDS011;21290;50.158;8.658;2023-10-19T04:45:16;32.13;;;20.85;;
35110;SDS011;21290;50.158;8.658;2023-10-19T04:47:43;30.90;;;20.73;;
35110;SDS011;21290;50.158;8.658;2023-10-19T04:50:10;32.13;;;20.98;;
35110;SDS011;21290;50.158;8.658;2023-10-19T04:52:37;30.60;;;20.58;;
35110;SDS011;21290;50.158;8.658;2023-10-19T04:55:04;34.08;;;21.65;;
35110;SDS011;21290;50.158;8.658;2023-10-19T04:57:32;34.63;;;20.63;;
35110;SDS011;21290;50.158;8.658;2023-10-19T04:59:58;35.80;;;21.63;;
35110;SDS011;21290;50.158;8.658;2023-10-19T05:02:25;37.67;;;21.80;;
35110;SDS011;21290;50.158;8.658;2023-10-19T05:04:52;34.13;;;21.67;;
35110;SDS011;21290;50.158;8.658;2023-10-19T05:07:18;34.75;;;22.48;;
35110;SDS011;21290;50.158;8.658;2023-10-19T05:09:45;35.05;;;22.00;;
35110;SDS011;21290;50.158;8.658;2023-10-19T05:12:13;32.92;;;22.20;;
35110;SDS011;21290;50.158;8.658;2023-10-19T05:14:41;39.38;;;21.85;;
35110;SDS011;21290;50.158;8.658;2023-10-19T05:17:08;35.85;;;22.15;;
35110;SDS011;21290;50.158;8.658;2023-10-19T05:19:36;34.40;;;21.33;;
35110;SDS011;21290;50.158;8.658;2023-10-19T05:22:05;33.83;;;21.48;;
35110;SDS011;21290;50.158;8.658;2023-10-19T05:24:33;37.08;;;21.33;;
35110;SDS011;21290;50.158;8.658;2023-10-19T05:26:59;30.30;;;21.30;;
35110;SDS011;21290;50.158;8.658;2023-10-19T05:29:26;32.55;;;21.73;;
35110;SDS011;21290;50.158;8.658;2023-10-19T05:31:53;36.78;;;21.55;;
35110;SDS011;21290;50.158;8.658;2023-10-19T05:34:20;32.00;;;21.27;;
35110;SDS011;21290;50.158;8.658;2023-10-19T05:36:48;34.95;;;22.50;;
35110;SDS011;21290;50.158;8.658;2023-10-19T05:39:15;39.03;;;24.42;;
35110;SDS011;21290;50.158;8.658;2023-10-19T05:41:42;39.60;;;22.60;;
35110;SDS011;21290;50.158;8.658;2023-10-19T05:44:09;32.65;;;21.10;;
35110;SDS011;21290;50.158;8.658;2023-10-19T05:46:36;31.95;;;20.77;;
35110;SDS011;21290;50.158;8.658;2023-10-19T05:49:04;33.75;;;21.00;;
35110;SDS011;21290;50.158;8.658;2023-10-19T05:51:32;38.55;;;22.67;;
35110;SDS011;21290;50.158;8.658;2023-10-19T05:53:59;32.75;;;22.00;;
35110;SDS011;21290;50.158;8.658;2023-10-19T05:56:29;33.25;;;20.70;;
35110;SDS011;21290;50.158;8.658;2023-10-19T05:58:57;36.53;;;20.80;;
35110;SDS011;21290;50.158;8.658;2023-10-19T06:01:24;37.08;;;21.48;;
35110;SDS011;21290;50.158;8.658;2023-10-19T06:03:51;28.88;;;19.77;;
35110;SDS011;21290;50.158;8.658;2023-10-19T06:06:19;30.95;;;20.55;;
35110;SDS011;21290;50.158;8.658;2023-10-19T06:08:46;27.48;;;19.30;;
35110;SDS011;21290;50.158;8.658;2023-10-19T06:11:12;34.38;;;20.58;;
35110;SDS011;21290;50.158;8.658;2023-10-19T06:13:39;34.97;;;21.05;;
35110;SDS011;21290;50.158;8.658;2023-10-19T06:16:06;32.45;;;21.73;;
35110;SDS011;21290;50.158;8.658;2023-10-19T06:18:33;35.90;;;19.75;;
35110;SDS011;21290;50.158;8.658;2023-10-19T06:21:00;29.42;;;20.00;;
35110;SDS011;21290;50.158;8.658;2023-10-19T06:23:26;34.13;;;19.77;;
35110;SDS011;21290;50.158;8.658;2023-10-19T06:25:53;32.85;;;20.63;;
35110;SDS011;21290;50.158;8.658;2023-10-19T06:28:19;31.70;;;20.08;;
35110;SDS011;21290;50.158;8.658;2023-10-19T06:30:46;28.85;;;19.38;;
35110;SDS011;21290;50.158;8.658;2023-10-19T06:33:14;34.72;;;21.10;;
35110;SDS011;21290;50.158;8.658;2023-10-19T06:35:41;34.90;;;20.02;;
35110;SDS011;21290;50.158;8.658;2023-10-19T06:38:07;37.90;;;22.27;;
35110;SDS011;21290;50.158;8.658;2023-10-19T06:40:35;40.58;;;22.08;;
35110;SDS011;21290;50.158;8.658;2023-10-19T06:43:02;41.92;;;22.00;;
35110;SDS011;21290;50.158;8.658;2023-10-19T06:45:31;47.33;;;22.08;;
35110;SDS011;21290;50.158;8.658;2023-10-19T06:47:59;49.95;;;23.02;;
35110;SDS011;21290;50.158;8.658;2023-10-19T06:50:26;51.35;;;25.85;;
35110;SDS011;21290;50.158;8.658;2023-10-19T06:52:53;45.08;;;23.27;;
35110;SDS011;21290;50.158;8.658;2023-10-19T06:55:22;63.65;;;28.98;;
35110;SDS011;21290;50.158;8.658;2023-10-19T06:57:50;71.10;;;30.80;;
35110;SDS011;21290;50.158;8.658;2023-10-19T07:00:21;71.72;;;29.00;;
35110;SDS011;21290;50.158;8.658;2023-10-19T07:02:51;73.63;;;31.88;;
35110;SDS011;21290;50.158;8.658;2023-10-19T07:05:19;83.55;;;32.55;;
35110;SDS011;21290;50.158;8.658;2023-10-19T07:07:56;76.75;;;32.80;;
35110;SDS011;21290;50.158;8.658;2023-10-19T07:10:25;68.25;;;31.33;;
35110;SDS011;21290;50.158;8.658;2023-10-19T07:12:54;75.20;;;31.15;;
35110;SDS011;21290;50.158;8.658;2023-10-19T07:15:22;66.68;;;31.75;;
35110;SDS011;21290;50.158;8.658;2023-10-19T07:17:49;83.40;;;32.33;;
35110;SDS011;21290;50.158;8.658;2023-10-19T07:20:20;77.63;;;34.35;;
35110;SDS011;21290;50.158;8.658;2023-10-19T07:23:00;95.22;;;34.08;;
35110;SDS011;21290;50.158;8.658;2023-10-19T07:25:47;74.65;;;33.33;;
35110;SDS011;21290;50.158;8.658;2023-10-19T07:28:19;89.03;;;36.20;;
35110;SDS011;21290;50.158;8.658;2023-10-19T07:30:46;92.32;;;36.17;;
35110;SDS011;21290;50.158;8.658;2023-10-19T07:33:14;123.18;;;35.40;;
35110;SDS011;21290;50.158;8.658;2023-10-19T07:35:44;103.90;;;35.22;;
35110;SDS011;21290;50.158;8.658;2023-10-19T07:38:18;104.88;;;37.15;;
35110;SDS011;21290;50.158;8.658;2023-10-19T07:40:49;86.88;;;35.90;;
35110;SDS011;21290;50.158;8.658;2023-10-19T07:43:19;77.45;;;36.00;;
35110;SDS011;21290;50.158;8.658;2023-10-19T07:45:46;104.47;;;35.58;;
35110;SDS011;21290;50.158;8.658;2023-10-19T07:48:14;102.80;;;35.35;;
35110;SDS011;21290;50.158;8.658;2023-10-19T07:50:40;84.30;;;35.75;;
35110;SDS011;21290;50.158;8.658;2023-10-19T07:53:08;96.13;;;37.05;;
35110;SDS011;21290;50.158;8.658;2023-10-19T07:55:35;75.72;;;33.88;;
35110;SDS011;21290;50.158;8.658;2023-10-19T07:58:04;81.45;;;36.85;;
35110;SDS011;21290;50.158;8.658;2023-10-19T08:00:33;96.88;;;35.65;;
35110;SDS011;21290;50.158;8.658;2023-10-19T08:03:00;90.70;;;35.78;;
35110;SDS011;21290;50.158;8.658;2023-10-19T08:05:27;90.53;;;35.55;;
35110;SDS011;21290;50.158;8.658;2023-10-19T08:07:54;115.78;;;36.03;;
35110;SDS011;21290;50.158;8.658;2023-10-19T08:10:23;83.15;;;34.60;;
35110;SDS011;21290;50.158;8.658;2023-10-19T08:12:51;72.90;;;35.47;;
35110;SDS011;21290;50.158;8.658;2023-10-19T08:15:18;91.20;;;35.53;;
35110;SDS011;21290;50.158;8.658;2023-10-19T08:17:47;93.40;;;36.10;;
35110;SDS011;21290;50.158;8.658;2023-10-19T08:20:16;98.43;;;35.92;;
35110;SDS011;21290;50.158;8.658;2023-10-19T08:22:43;143.27;;;40.05;;
35110;SDS011;21290;50.158;8.658;2023-10-19T08:25:13;106.47;;;39.28;;
35110;SDS011;21290;50.158;8.658;2023-10-19T08:27:43;117.28;;;38.72;;
35110;SDS011;21290;50.158;8.658;2023-10-19T08:30:12;131.73;;;35.92;;
35110;SDS011;21290;50.158;8.658;2023-10-19T08:32:46;117.28;;;36.80;;
35110;SDS011;21290;50.158;8.658;2023-10-19T08:35:21;84.57;;;34.42;;
35110;SDS011;21290;50.158;8.658;2023-10-19T08:37:52;83.35;;;33.75;;
35110;SDS011;21290;50.158;8.658;2023-10-19T08:40:19;77.55;;;33.33;;
35110;SDS011;21290;50.158;8.658;2023-10-19T08:42:47;82.57;;;34.55;;
35110;SDS011;21290;50.158;8.658;2023-10-19T08:45:14;93.40;;;34.80;;
35110;SDS011;21290;50.158;8.658;2023-10-19T08:47:55;79.32;;;35.00;;
35110;SDS011;21290;50.158;8.658;2023-10-19T08:50:27;92.88;;;34.83;;
35110;SDS011;21290;50.158;8.658;2023-10-19T08:52:56;105.30;;;35.30;;
35110;SDS011;21290;50.158;8.658;2023-10-19T08:55:27;101.50;;;35.67;;
35110;SDS011;21290;50.158;8.658;2023-10-19T08:58:14;77.03;;;35.08;;
35110;SDS011;21290;50.158;8.658;2023-10-19T09:00:47;132.00;;;35.40;;
35110;SDS011;21290;50.158;8.658;2023-10-19T09:03:23;87.93;;;35.63;;
35110;SDS011;21290;50.158;8.658;2023-10-19T09:05:52;90.40;;;36.15;;
35110;SDS011;21290;50.158;8.658;2023-10-19T09:08:20;73.63;;;34.40;;
35110;SDS011;21290;50.158;8.658;2023-10-19T09:10:49;79.00;;;34.42;;
35110;SDS011;21290;50.158;8.658;2023-10-19T09:13:21;97.95;;;35.83;;
35110;SDS011;21290;50.158;8.658;2023-10-19T09:18:21;72.13;;;32.88;;
35110;SDS011;21290;50.158;8.658;2023-10-19T09:20:50;68.90;;;33.08;;
35110;SDS011;21290;50.158;8.658;2023-10-19T09:23:34;75.95;;;32.60;;
35110;SDS011;21290;50.158;8.658;2023-10-19T09:26:02;74.70;;;35.15;;
35110;SDS011;21290;50.158;8.658;2023-10-19T09:28:30;69.25;;;33.95;;
35110;SDS011;21290;50.158;8.658;2023-10-19T09:31:01;70.55;;;33.95;;
35110;SDS011;21290;50.158;8.658;2023-10-19T09:33:28;67.30;;;34.25;;
35110;SDS011;21290;50.158;8.658;2023-10-19T09:35:56;74.03;;;36.92;;
35110;SDS011;21290;50.158;8.658;2023-10-19T09:38:27;73.93;;;37.95;;
35110;SDS011;21290;50.158;8.658;2023-10-19T09:40:54;69.30;;;35.33;;
35110;SDS011;21290;50.158;8.658;2023-10-19T09:43:28;70.22;;;34.88;;
35110;SDS011;21290;50.158;8.658;2023-10-19T09:46:06;64.90;;;33.55;;
35110;SDS011;21290;50.158;8.658;2023-10-19T09:48:39;60.90;;;32.92;;
35110;SDS011;21290;50.158;8.658;2023-10-19T09:51:10;69.80;;;35.20;;
35110;SDS011;21290;50.158;8.658;2023-10-19T09:53:40;64.35;;;33.00;;
35110;SDS011;21290;50.158;8.658;2023-10-19T09:58:46;65.22;;;36.03;;
35110;SDS011;21290;50.158;8.658;2023-10-19T10:01:16;92.43;;;60.95;;
35110;SDS011;21290;50.158;8.658;2023-10-19T10:06:26;91.55;;;50.47;;
35110;SDS011;21290;50.158;8.658;2023-10-19T10:09:19;99.07;;;56.80;;
35110;SDS011;21290;50.158;8.658;2023-10-19T10:11:49;83.30;;;47.28;;
35110;SDS011;21290;50.158;8.658;2023-10-19T10:14:22;67.45;;;37.10;;
35110;SDS011;21290;50.158;8.658;2023-10-19T10:17:00;70.50;;;35.10;;
35110;SDS011;21290;50.158;8.658;2023-10-19T10:19:28;64.72;;;34.05;;
35110;SDS011;21290;50.158;8.658;2023-10-19T10:24:41;60.22;;;32.72;;
35110;SDS011;21290;50.158;8.658;2023-10-19T10:27:08;60.53;;;33.10;;
35110;SDS011;21290;50.158;8.658;2023-10-19T10:29:36;60.53;;;34.00;;
35110;SDS011;21290;50.158;8.658;2023-10-19T10:32:42;57.72;;;32.60;;
35110;SDS011;21290;50.158;8.658;2023-10-19T10:38:03;61.38;;;32.75;;
35110;SDS011;21290;50.158;8.658;2023-10-19T10:40:49;57.30;;;33.83;;
35110;SDS011;21290;50.158;8.658;2023-10-19T10:43:17;61.63;;;33.42;;
35110;SDS011;21290;50.158;8.658;2023-10-19T10:45:44;58.55;;;33.17;;
35110;SDS011;21290;50.158;8.658;2023-10-19T10:48:12;67.22;;;33.72;;
35110;SDS011;21290;50.158;8.658;2023-10-19T10:50:39;63.92;;;32.97;;
35110;SDS011;21290;50.158;8.658;2023-10-19T10:53:11;58.22;;;33.20;;
35110;SDS011;21290;50.158;8.658;2023-10-19T10:55:38;59.55;;;34.03;;
35110;SDS011;21290;50.158;8.658;2023-10-19T10:58:05;59.28;;;33.20;;
35110;SDS011;21290;50.158;8.658;2023-10-19T11:00:32;68.70;;;35.13;;
35110;SDS011;21290;50.158;8.658;2023-10-19T11:03:01;69.28;;;36.30;;
35110;SDS011;21290;50.158;8.658;2023-10-19T11:05:36;63.90;;;34.60;;
35110;SDS011;21290;50.158;8.658;2023-10-19T11:08:05;65.22;;;36.00;;
35110;SDS011;21290;50.158;8.658;2023-10-19T11:10:33;71.70;;;35.45;;
35110;SDS011;21290;50.158;8.658;2023-10-19T11:13:04;67.25;;;35.30;;
35110;SDS011;21290;50.158;8.658;2023-10-19T11:15:32;64.75;;;33.83;;
35110;SDS011;21290;50.158;8.658;2023-10-19T11:18:00;62.10;;;34.15;;
35110;SDS011;21290;50.158;8.658;2023-10-19T11:20:27;61.50;;;33.78;;
35110;SDS011;21290;50.158;8.658;2023-10-19T11:22:55;58.95;;;32.35;;
35110;SDS011;21290;50.158;8.658;2023-10-19T11:25:24;64.32;;;32.65;;
35110;SDS011;21290;50.158;8.658;2023-10-19T11:27:57;57.75;;;33.33;;
35110;SDS011;21290;50.158;8.658;2023-10-19T11:30:28;57.53;;;32.75;;
35110;SDS011;21290;50.158;8.658;2023-10-19T11:32:58;63.60;;;32.60;;
35110;SDS011;21290;50.158;8.658;2023-10-19T11:35:30;59.25;;;34.17;;
35110;SDS011;21290;50.158;8.658;2023-10-19T11:37:58;49.45;;;30.70;;
35110;SDS011;21290;50.158;8.658;2023-10-19T11:40:26;59.05;;;32.47;;
35110;SDS011;21290;50.158;8.658;2023-10-19T11:42:54;57.20;;;33.95;;
35110;SDS011;21290;50.158;8.658;2023-10-19T11:45:26;52.05;;;32.10;;
35110;SDS011;21290;50.158;8.658;2023-10-19T11:47:53;57.70;;;33.10;;
35110;SDS011;21290;50.158;8.658;2023-10-19T11:50:21;53.50;;;32.83;;
35110;SDS011;21290;50.158;8.658;2023-10-19T11:52:48;50.22;;;32.13;;
35110;SDS011;21290;50.158;8.658;2023-10-19T11:55:15;57.75;;;32.83;;
35110;SDS011;21290;50.158;8.658;2023-10-19T11:57:42;57.95;;;33.55;;
35110;SDS011;21290;50.158;8.658;2023-10-19T12:00:10;61.85;;;34.10;;
35110;SDS011;21290;50.158;8.658;2023-10-19T12:02:40;58.67;;;33.75;;
35110;SDS011;21290;50.158;8.658;2023-10-19T12:05:10;63.28;;;35.33;;
35110;SDS011;21290;50.158;8.658;2023-10-19T12:07:37;61.80;;;33.15;;
35110;SDS011;21290;50.158;8.658;2023-10-19T12:10:05;54.17;;;33.28;;
35110;SDS011;21290;50.158;8.658;2023-10-19T12:12:34;53.75;;;32.70;;
35110;SDS011;21290;50.158;8.658;2023-10-19T12:15:22;56.05;;;33.03;;
35110;SDS011;21290;50.158;8.658;2023-10-19T12:17:49;58.83;;;34.60;;
35110;SDS011;21290;50.158;8.658;2023-10-19T12:20:17;56.43;;;33.57;;
35110;SDS011;21290;50.158;8.658;2023-10-19T12:22:48;52.80;;;32.63;;
35110;SDS011;21290;50.158;8.658;2023-10-19T12:25:18;52.88;;;33.05;;
35110;SDS011;21290;50.158;8.658;2023-10-19T12:27:45;51.95;;;33.55;;
35110;SDS011;21290;50.158;8.658;2023-10-19T12:30:11;60.17;;;34.63;;
35110;SDS011;21290;50.158;8.658;2023-10-19T12:32:48;55.92;;;32.45;;
35110;SDS011;21290;50.158;8.658;2023-10-19T12:35:18;53.40;;;32.13;;
35110;SDS011;21290;50.158;8.658;2023-10-19T12:37:56;51.35;;;31.55;;
35110;SDS011;21290;50.158;8.658;2023-10-19T12:40:22;55.05;;;32.22;;
35110;SDS011;21290;50.158;8.658;2023-10-19T12:42:52;55.65;;;33.08;;
35110;SDS011;21290;50.158;8.658;2023-10-19T12:45:24;52.55;;;32.05;;
35110;SDS011;21290;50.158;8.658;2023-10-19T12:47:54;59.33;;;33.15;;
35110;SDS011;21290;50.158;8.658;2023-10-19T12:50:21;55.45;;;32.40;;
35110;SDS011;21290;50.158;8.658;2023-10-19T12:52:49;58.35;;;34.30;;
35110;SDS011;21290;50.158;8.658;2023-10-19T12:55:17;56.78;;;32.15;;
35110;SDS011;21290;50.158;8.658;2023-10-19T12:57:44;56.60;;;33.63;;
35110;SDS011;21290;50.158;8.658;2023-10-19T13:00:11;55.50;;;32.75;;
35110;SDS011;21290;50.158;8.658;2023-10-19T13:02:51;56.28;;;33.88;;
35110;SDS011;21290;50.158;8.658;2023-10-19T13:05:28;56.72;;;33.22;;
35110;SDS011;21290;50.158;8.658;2023-10-19T13:07:58;64.35;;;34.38;;
35110;SDS011;21290;50.158;8.658;2023-10-19T13:10:29;61.40;;;34.40;;
35110;SDS011;21290;50.158;8.658;2023-10-19T13:13:00;63.47;;;35.03;;
35110;SDS011;21290;50.158;8.658;2023-10-19T13:15:32;62.13;;;34.42;;
35110;SDS011;21290;50.158;8.658;2023-10-19T13:18:01;61.58;;;33.75;;
35110;SDS011;21290;50.158;8.658;2023-10-19T13:20:29;61.20;;;33.55;;
35110;SDS011;21290;50.158;8.658;2023-10-19T13:23:02;64.53;;;35.90;;
35110;SDS011;21290;50.158;8.658;2023-10-19T13:25:30;61.88;;;34.08;;
35110;SDS011;21290;50.158;8.658;2023-10-19T13:28:17;59.35;;;33.53;;
35110;SDS011;21290;50.158;8.658;2023-10-19T13:30:48;61.35;;;35.45;;
35110;SDS011;21290;50.158;8.658;2023-10-19T13:33:21;66.15;;;35.30;;
35110;SDS011;21290;50.158;8.658;2023-10-19T13:35:50;60.33;;;33.67;;
35110;SDS011;21290;50.158;8.658;2023-10-19T13:38:17;61.28;;;34.13;;
35110;SDS011;21290;50.158;8.658;2023-10-19T13:43:13;67.25;;;34.22;;
35110;SDS011;21290;50.158;8.658;2023-10-19T13:45:41;64.35;;;35.85;;
35110;SDS011;21290;50.158;8.658;2023-10-19T13:48:11;64.03;;;35.72;;
35110;SDS011;21290;50.158;8.658;2023-10-19T13:50:45;59.42;;;35.13;;
35110;SDS011;21290;50.158;8.658;2023-10-19T13:53:16;64.43;;;35.38;;
35110;SDS011;21290;50.158;8.658;2023-10-19T13:55:43;61.97;;;34.97;;
35110;SDS011;21290;50.158;8.658;2023-10-19T13:58:10;63.55;;;35.10;;
35110;SDS011;21290;50.158;8.658;2023-10-19T14:00:41;64.80;;;35.92;;
35110;SDS011;21290;50.158;8.658;2023-10-19T14:03:09;62.95;;;35.83;;
35110;SDS011;21290;50.158;8.658;2023-10-19T14:08:09;65.07;;;34.22;;
35110;SDS011;21290;50.158;8.658;2023-10-19T14:10:42;63.67;;;35.63;;
35110;SDS011;21290;50.158;8.658;2023-10-19T14:13:10;66.38;;;35.55;;
35110;SDS011;21290;50.158;8.658;2023-10-19T14:15:43;68.75;;;35.55;;
35110;SDS011;21290;50.158;8.658;2023-10-19T14:18:10;68.97;;;36.35;;
35110;SDS011;21290;50.158;8.658;2023-10-19T14:20:39;66.15;;;35.10;;
35110;SDS011;21290;50.158;8.658;2023-10-19T14:23:07;66.95;;;36.47;;
35110;SDS011;21290;50.158;8.658;2023-10-19T14:25:37;57.50;;;33.70;;
35110;SDS011;21290;50.158;8.658;2023-10-19T14:28:05;60.30;;;33.50;;
35110;SDS011;21290;50.158;8.658;2023-10-19T14:30:36;63.90;;;34.90;;
35110;SDS011;21290;50.158;8.658;2023-10-19T14:33:02;65.40;;;34.30;;
35110;SDS011;21290;50.158;8.658;2023-10-19T14:35:30;66.72;;;35.67;;
35110;SDS011;21290;50.158;8.658;2023-10-19T14:37:57;65.32;;;34.65;;
35110;SDS011;21290;50.158;8.658;2023-10-19T14:40:26;65.60;;;35.88;;
35110;SDS011;21290;50.158;8.658;2023-10-19T14:42:54;66.22;;;36.17;;
35110;SDS011;21290;50.158;8.658;2023-10-19T14:45:24;63.78;;;35.08;;
35110;SDS011;21290;50.158;8.658;2023-10-19T14:47:59;64.22;;;34.45;;
35110;SDS011;21290;50.158;8.658;2023-10-19T14:50:29;78.20;;;36.25;;
35110;SDS011;21290;50.158;8.658;2023-10-19T14:52:57;58.78;;;34.65;;
35110;SDS011;21290;50.158;8.658;2023-10-19T14:55:24;62.67;;;34.78;;
35110;SDS011;21290;50.158;8.658;2023-10-19T14:57:52;57.75;;;33.05;;
35110;SDS011;21290;50.158;8.658;2023-10-19T15:02:49;63.33;;;34.30;;
35110;SDS011;21290;50.158;8.658;2023-10-19T15:05:17;63.47;;;35.63;;
35110;SDS011;21290;50.158;8.658;2023-10-19T15:07:46;65.20;;;36.13;;